Time;durP1;ratioP1;P1;durP2;ratioP2;P2;SDS_P1;SDS_P2;PMS_P1;PMS_P2;Temp;Humidity;BMP_temperature;BMP_pressure;BME280_temperature;BME280_humidity;BME280_pressure;Samples;Min_cycle;Max_cycle;Signal;HPM_P1;HPM_P2
2023/03/31 00:02:12;;;;;;;19.65;2.53;;;;;;;10.22;100.00;100367.81;5207695;28;20092;-80
2023/03/31 00:04:44;;;;;;;16.75;2.30;;;;;;;10.22;100.00;100359.78;5207826;28;20049;-80
2023/03/31 00:07:15;;;;;;;12.40;2.42;;;;;;;10.24;100.00;100349.75;5207640;28;20039;-80
2023/03/31 00:09:45;;;;;;;16.27;2.50;;;;;;;10.27;100.00;100349.41;5208031;28;20021;-80
2023/03/31 00:12:16;;;;;;;15.90;2.83;;;;;;;10.31;100.00;100348.03;5207853;28;20032;-81
2023/03/31 00:14:47;;;;;;;27.98;2.53;;;;;;;10.36;100.00;100342.97;5208000;28;20033;-79
2023/03/31 00:17:17;;;;;;;16.35;3.00;;;;;;;10.39;100.00;100331.88;5205158;28;20030;-80
2023/03/31 00:19:48;;;;;;;14.80;2.80;;;;;;;10.42;100.00;100339.59;5206374;28;20417;-80
2023/03/31 00:22:21;;;;;;;13.63;2.38;;;;;;;10.43;100.00;100337.72;5208239;28;20030;-80
2023/03/31 00:24:52;;;;;;;15.98;2.22;;;;;;;10.44;100.00;100334.03;5207533;28;20031;-80
2023/03/31 00:27:23;;;;;;;29.48;5.53;;;;;;;10.45;100.00;100333.88;5204239;28;20080;-79
2023/03/31 00:29:54;;;;;;;16.75;2.28;;;;;;;10.49;100.00;100334.34;5205641;28;20025;-80
2023/03/31 00:32:24;;;;;;;17.42;2.45;;;;;;;10.50;100.00;100328.81;5206025;28;20032;-80
2023/03/31 00:34:55;;;;;;;14.73;2.65;;;;;;;10.54;100.00;100323.91;5205165;28;20033;-80
2023/03/31 00:37:25;;;;;;;20.20;3.03;;;;;;;10.58;100.00;100333.28;5201377;28;20037;-80
2023/03/31 00:39:56;;;;;;;16.17;3.25;;;;;;;10.66;100.00;100332.38;5205616;28;20505;-80
2023/03/31 00:42:27;;;;;;;15.25;2.63;;;;;;;10.69;100.00;100322.13;5206351;28;20482;-80
2023/03/31 00:45:21;;;;;;;20.73;4.00;;;;;;;10.73;100.00;100314.56;5195827;28;20029;-80
2023/03/31 00:47:55;;;;;;;19.05;3.40;;;;;;;10.75;100.00;100312.53;5205828;28;20017;-80
2023/03/31 00:50:31;;;;;;;22.42;4.35;;;;;;;10.77;100.00;100308.66;5221318;28;20041;-81
2023/03/31 00:53:09;;;;;;;15.18;3.05;;;;;;;10.79;100.00;100305.78;5206192;28;20030;-81
2023/03/31 00:55:45;;;;;;;24.42;3.10;;;;;;;10.82;100.00;100295.53;5201872;28;20040;-81
2023/03/31 00:58:19;;;;;;;20.60;2.90;;;;;;;10.81;100.00;100291.19;5206022;28;20029;-80
2023/03/31 01:00:51;;;;;;;17.52;3.25;;;;;;;10.78;100.00;100278.09;5206293;28;20112;-81
2023/03/31 01:03:23;;;;;;;20.80;3.47;;;;;;;10.79;100.00;100284.31;5207553;28;20033;-80
2023/03/31 01:05:58;;;;;;;19.00;2.70;;;;;;;10.74;100.00;100273.28;5207374;28;20160;-80
2023/03/31 01:08:28;;;;;;;10.00;2.85;;;;;;;10.69;100.00;100273.81;5207415;28;20710;-81
2023/03/31 01:11:03;;;;;;;21.70;3.85;;;;;;;10.66;100.00;100259.97;5206310;28;20041;-80
2023/03/31 01:13:37;;;;;;;18.65;4.03;;;;;;;10.62;100.00;100243.38;5207542;28;20567;-81
2023/03/31 01:16:08;;;;;;;22.60;2.60;;;;;;;10.62;100.00;100236.16;5207850;28;20028;-81
2023/03/31 01:18:39;;;;;;;17.05;2.95;;;;;;;10.58;100.00;100236.72;5196249;28;20038;-81
2023/03/31 01:21:47;;;;;;;17.63;2.92;;;;;;;10.54;100.00;100222.84;5206769;28;20014;-81
2023/03/31 01:25:00;;;;;;;19.38;2.90;;;;;;;10.49;100.00;100208.28;5207821;28;20433;-81
2023/03/31 01:28:05;;;;;;;28.33;5.85;;;;;;;10.44;100.00;100192.78;5206754;28;20055;-80
2023/03/31 01:30:55;;;;;;;21.08;3.65;;;;;;;10.42;100.00;100186.75;5206967;28;20025;-81
2023/03/31 01:34:03;;;;;;;21.77;3.60;;;;;;;10.37;100.00;100178.41;5207661;28;20033;-80
2023/03/31 01:36:56;;;;;;;24.77;3.80;;;;;;;10.33;100.00;100163.69;5207040;28;20132;-80
2023/03/31 01:39:42;;;;;;;25.38;3.67;;;;;;;10.34;100.00;100158.16;5209822;28;20128;-81
2023/03/31 01:42:19;;;;;;;19.10;2.70;;;;;;;10.36;100.00;100161.47;5209707;28;20099;-80
2023/03/31 01:45:11;;;;;;;22.75;3.28;;;;;;;10.35;100.00;100150.94;5208955;28;20095;-80
2023/03/31 01:48:06;;;;;;;20.58;2.95;;;;;;;10.32;100.00;100138.72;5209097;28;20029;-81
2023/03/31 01:50:46;;;;;;;23.48;3.00;;;;;;;10.33;100.00;100131.50;5209317;28;20048;-80
2023/03/31 01:53:17;;;;;;;22.13;3.35;;;;;;;10.31;100.00;100131.72;5208875;28;20425;-81
2023/03/31 01:56:09;;;;;;;23.80;3.15;;;;;;;10.31;100.00;100117.47;5205593;28;20029;-80
2023/03/31 01:58:48;;;;;;;18.73;3.13;;;;;;;10.28;100.00;100099.06;5208557;28;20021;-80
2023/03/31 02:02:01;;;;;;;21.55;3.15;;;;;;;10.28;100.00;100082.97;5208414;28;20079;-80
2023/03/31 02:04:37;;;;;;;17.25;2.55;;;;;;;10.25;100.00;100086.88;5208749;28;20457;-80
2023/03/31 02:07:19;;;;;;;15.20;2.63;;;;;;;10.24;100.00;100070.94;5208527;28;20105;-80
2023/03/31 02:10:00;;;;;;;14.27;3.03;;;;;;;10.20;100.00;100064.28;5223271;28;20045;-80
2023/03/31 02:12:33;;;;;;;21.58;3.22;;;;;;;10.18;100.00;100056.41;5208138;28;20506;-80
2023/03/31 02:15:09;;;;;;;12.82;2.78;;;;;;;10.20;100.00;100037.47;5208883;28;20028;-80
2023/03/31 02:17:44;;;;;;;23.45;2.78;;;;;;;10.20;100.00;100026.75;5203114;28;20022;-79
2023/03/31 02:20:18;;;;;;;18.75;2.97;;;;;;;10.18;100.00;100018.88;5204476;28;20087;-80
2023/03/31 02:22:54;;;;;;;17.02;2.30;;;;;;;10.21;100.00;100007.78;5199258;28;20029;-81
2023/03/31 02:25:34;;;;;;;19.52;2.63;;;;;;;10.25;100.00;100001.09;5208208;28;20029;-80
2023/03/31 02:28:12;;;;;;;14.48;2.75;;;;;;;10.25;100.00;99984.16;5207827;28;20029;-80
2023/03/31 02:31:03;;;;;;;19.52;3.00;;;;;;;10.23;100.00;99981.63;5207579;28;20025;-80
2023/03/31 02:33:34;;;;;;;16.23;2.63;;;;;;;10.22;100.00;99981.81;5208195;28;20040;-79
2023/03/31 02:36:06;;;;;;;19.00;2.50;;;;;;;10.16;100.00;99970.00;5208074;28;20025;-80
2023/03/31 02:38:42;;;;;;;10.45;2.25;;;;;;;10.16;100.00;99978.03;5206687;28;20080;-80
2023/03/31 02:41:12;;;;;;;16.52;2.92;;;;;;;10.16;100.00;99970.00;5206028;28;20153;-80
2023/03/31 02:43:43;;;;;;;19.83;3.45;;;;;;;10.14;100.00;99955.94;5206459;28;20126;-80
2023/03/31 02:46:13;;;;;;;12.57;2.70;;;;;;;10.11;100.00;99962.50;5205368;28;20029;-80
2023/03/31 02:48:49;;;;;;;11.70;2.50;;;;;;;10.10;100.00;99960.00;5204689;28;20184;-80
2023/03/31 02:51:37;;;;;;;14.32;2.30;;;;;;;10.06;100.00;99954.19;5205386;28;20038;-81
2023/03/31 02:54:27;;;;;;;14.48;2.72;;;;;;;10.04;100.00;99955.38;5206189;28;20390;-80
2023/03/31 02:57:35;;;;;;;18.75;2.50;;;;;;;10.04;100.00;99936.59;5196624;28;20029;-80
2023/03/31 03:00:19;;;;;;;14.88;2.40;;;;;;;10.01;100.00;99935.16;5205309;28;20024;-81
2023/03/31 03:02:59;;;;;;;13.65;2.42;;;;;;;9.99;100.00;99936.34;5205649;28;20025;-81
2023/03/31 03:06:04;;;;;;;18.88;2.88;;;;;;;9.97;100.00;99928.50;5205529;28;20064;-81
2023/03/31 03:09:06;;;;;;;17.33;2.97;;;;;;;9.95;100.00;99909.09;5205441;28;20080;-80
2023/03/31 03:11:42;;;;;;;11.63;2.90;;;;;;;9.92;100.00;99911.31;5220853;28;20017;-80
2023/03/31 03:14:17;;;;;;;13.98;2.40;;;;;;;9.90;100.00;99899.97;5205204;28;20021;-81
2023/03/31 03:16:56;;;;;;;12.43;2.17;;;;;;;9.86;100.00;99892.28;5204915;28;20040;-81
2023/03/31 03:19:27;;;;;;;16.55;2.72;;;;;;;9.91;100.00;99889.03;5203628;28;20053;-80
2023/03/31 03:21:58;;;;;;;13.00;2.40;;;;;;;9.90;100.00;99871.31;5204669;28;20045;-80
2023/03/31 03:24:28;;;;;;;13.35;2.22;;;;;;;9.89;100.00;99871.47;5204162;28;20028;-81
2023/03/31 03:26:59;;;;;;;17.92;3.17;;;;;;;9.89;100.00;99864.31;5204446;28;20033;-81
2023/03/31 03:29:29;;;;;;;15.82;1.80;;;;;;;9.91;100.00;99851.53;5205387;28;20394;-80
2023/03/31 03:32:00;;;;;;;21.40;2.67;;;;;;;9.87;100.00;99860.97;5205173;28;20022;-80
2023/03/31 03:34:30;;;;;;;11.68;2.67;;;;;;;9.88;100.00;99857.25;5205173;28;20021;-81
2023/03/31 03:37:01;;;;;;;11.95;2.22;;;;;;;9.88;100.00;99856.44;5204208;28;20034;-80
2023/03/31 03:39:32;;;;;;;9.68;1.92;;;;;;;9.81;100.00;99834.91;5204564;28;20120;-81
2023/03/31 03:42:02;;;;;;;11.40;2.00;;;;;;;9.79;100.00;99819.03;5204609;28;20018;-81
2023/03/31 03:44:33;;;;;;;12.23;2.13;;;;;;;9.79;100.00;99800.28;5204916;28;20052;-81
2023/03/31 03:47:04;;;;;;;6.00;1.95;;;;;;;9.76;100.00;99791.78;5203257;28;20021;-80
2023/03/31 03:49:34;;;;;;;8.30;1.98;;;;;;;9.74;100.00;99788.44;5204674;28;20428;-80
2023/03/31 03:52:05;;;;;;;14.65;3.22;;;;;;;9.72;100.00;99794.00;5204499;28;20462;-81
2023/03/31 03:54:35;;;;;;;10.80;2.38;;;;;;;9.68;100.00;99783.84;5197897;28;20060;-81
2023/03/31 03:57:06;;;;;;;10.68;2.42;;;;;;;9.63;100.00;99772.88;5198346;28;20028;-81
2023/03/31 03:59:36;;;;;;;15.50;2.22;;;;;;;9.60;100.00;99769.56;5204571;28;20048;-81
2023/03/31 04:02:07;;;;;;;17.52;2.33;;;;;;;9.58;100.00;99776.91;5204244;28;20151;-81
2023/03/31 04:04:37;;;;;;;11.73;2.00;;;;;;;9.57;100.00;99777.94;5204871;28;20029;-81
2023/03/31 04:07:08;;;;;;;14.13;1.70;;;;;;;9.56;100.00;99762.06;5204465;28;20026;-81
2023/03/31 04:09:38;;;;;;;12.90;2.10;;;;;;;9.57;100.00;99785.97;5204432;28;20047;-81
2023/03/31 04:12:09;;;;;;;15.07;3.55;;;;;;;9.64;100.00;99787.91;5204344;28;20116;-81
2023/03/31 04:14:40;;;;;;;18.17;2.33;;;;;;;9.65;100.00;99792.28;5204159;28;20025;-81
2023/03/31 04:17:14;;;;;;;17.65;2.65;;;;;;;9.60;100.00;99776.75;5203813;28;20111;-81
2023/03/31 04:19:49;;;;;;;21.97;2.40;;;;;;;9.54;100.00;99745.38;5204524;28;20071;-81
2023/03/31 04:22:20;;;;;;;24.30;2.70;;;;;;;9.51;100.00;99722.47;5204027;28;20024;-81
2023/03/31 04:24:51;;;;;;;17.60;2.60;;;;;;;9.48;100.00;99705.94;5203703;28;20564;-81
2023/03/31 04:27:25;;;;;;;8.98;2.15;;;;;;;9.44;100.00;99713.53;5193200;28;20425;-81
2023/03/31 04:29:56;;;;;;;11.43;2.07;;;;;;;9.41;100.00;99707.72;5202449;28;20029;-81
2023/03/31 04:32:27;;;;;;;6.78;2.30;;;;;;;9.34;100.00;99692.41;5202826;28;20522;-81
2023/03/31 04:35:01;;;;;;;7.47;1.15;;;;;;;9.33;100.00;99687.22;5202950;28;20021;-81
2023/03/31 04:37:33;;;;;;;9.38;1.83;;;;;;;9.31;100.00;99683.91;5205701;28;20098;-81
2023/03/31 04:40:06;;;;;;;6.10;1.35;;;;;;;9.29;100.00;99688.63;5206382;28;20033;-81
2023/03/31 04:42:37;;;;;;;8.55;1.50;;;;;;;9.26;100.00;99673.75;5206303;28;20017;-81
2023/03/31 04:45:08;;;;;;;9.10;1.75;;;;;;;9.25;100.00;99665.94;5206899;28;20098;-81
2023/03/31 04:47:39;;;;;;;4.72;1.98;;;;;;;9.21;100.00;99668.13;5204630;28;20027;-81
2023/03/31 04:50:10;;;;;;;8.02;1.50;;;;;;;9.18;100.00;99656.97;5194939;28;20025;-81
2023/03/31 04:52:40;;;;;;;9.20;1.50;;;;;;;9.17;100.00;99655.31;5206525;28;20041;-81
2023/03/31 04:55:10;;;;;;;6.95;1.10;;;;;;;9.15;100.00;99644.81;5201392;28;20523;-81
2023/03/31 04:57:41;;;;;;;5.53;1.20;;;;;;;9.10;100.00;99639.19;5203195;28;20565;-81
2023/03/31 05:00:13;;;;;;;2.53;1.00;;;;;;;9.08;100.00;99636.66;5207031;28;20029;-81
2023/03/31 05:02:43;;;;;;;5.60;2.22;;;;;;;9.06;100.00;99637.88;5206359;28;20065;-82
2023/03/31 05:05:14;;;;;;;6.70;1.92;;;;;;;9.02;100.00;99631.25;5206624;28;20032;-83
2023/03/31 05:07:45;;;;;;;7.43;1.00;;;;;;;9.02;100.00;99631.25;5206281;28;20029;-81
2023/03/31 05:10:15;;;;;;;6.97;1.30;;;;;;;8.99;100.00;99616.41;5206228;28;20479;-80
2023/03/31 05:12:46;;;;;;;4.47;1.30;;;;;;;9.01;100.00;99616.22;5206749;28;20033;-84
2023/03/31 05:15:16;;;;;;;6.60;1.35;;;;;;;9.01;100.00;99609.00;5205156;28;20163;-83
2023/03/31 05:17:47;;;;;;;8.27;1.70;;;;;;;9.03;100.00;99612.31;5198885;28;20092;-82
2023/03/31 05:20:19;;;;;;;9.60;1.70;;;;;;;9.08;100.00;99603.75;5200956;28;20029;-79
2023/03/31 05:22:49;;;;;;;6.05;1.52;;;;;;;9.16;100.00;99600.16;5208900;28;20108;-80
2023/03/31 05:25:21;;;;;;;9.77;2.00;;;;;;;9.27;100.00;99599.66;5198918;28;20492;-79
2023/03/31 05:27:51;;;;;;;11.73;1.80;;;;;;;9.38;100.00;99598.34;5209734;28;20034;-80
2023/03/31 05:30:24;;;;;;;14.40;2.53;;;;;;;9.40;100.00;99607.84;5208827;28;20423;-80
2023/03/31 05:32:55;;;;;;;16.60;2.47;;;;;;;9.43;100.00;99607.44;5208851;28;20107;-79
2023/03/31 05:35:26;;;;;;;17.65;2.67;;;;;;;9.48;100.00;99594.31;5208254;28;20159;-79
2023/03/31 05:37:57;;;;;;;14.13;3.17;;;;;;;9.53;100.00;99594.59;5204709;28;20030;-79
2023/03/31 05:40:27;;;;;;;19.45;3.15;;;;;;;9.67;100.00;99598.25;5205486;28;20116;-80
2023/03/31 05:42:58;;;;;;;22.25;3.20;;;;;;;9.70;100.00;99578.28;5205582;28;20482;-83
2023/03/31 05:45:28;;;;;;;21.55;3.17;;;;;;;9.79;100.00;99580.66;5205593;28;20032;-83
2023/03/31 05:47:59;;;;;;;18.20;2.88;;;;;;;9.86;100.00;99580.72;5203908;28;20034;-84
2023/03/31 05:50:29;;;;;;;22.52;3.60;;;;;;;9.94;100.00;99580.59;5197925;28;20021;-81
2023/03/31 05:53:00;;;;;;;20.02;4.13;;;;;;;9.98;100.00;99579.16;5205408;28;20033;-82
2023/03/31 05:55:30;;;;;;;22.20;4.85;;;;;;;10.00;100.00;99562.91;5203221;28;20025;-82
2023/03/31 05:58:01;;;;;;;15.20;3.00;;;;;;;10.01;100.00;99565.38;5204608;28;20370;-82
2023/03/31 06:00:32;;;;;;;20.92;3.40;;;;;;;10.03;100.00;99566.00;5204891;28;20067;-80
2023/03/31 06:03:02;;;;;;;18.02;3.03;;;;;;;10.08;100.00;99563.56;5204620;28;20033;-83
2023/03/31 06:05:33;;;;;;;22.17;3.22;;;;;;;10.16;100.00;99562.63;5198788;28;20545;-78
2023/03/31 06:08:05;;;;;;;13.38;3.47;;;;;;;10.18;100.00;99560.56;5199768;28;20343;-80
2023/03/31 06:10:37;;;;;;;20.25;3.20;;;;;;;10.20;100.00;99560.38;5202954;28;20018;-78
2023/03/31 06:13:09;;;;;;;22.75;3.20;;;;;;;10.17;100.00;99542.81;5203237;28;20108;-79
2023/03/31 06:15:40;;;;;;;20.63;3.58;;;;;;;10.21;100.00;99545.94;5202030;28;20497;-85
2023/03/31 06:18:11;;;;;;;16.95;3.58;;;;;;;10.28;100.00;99530.75;5194893;28;20068;-83
2023/03/31 06:20:42;;;;;;;16.65;3.65;;;;;;;10.31;100.00;99536.56;5203023;28;20040;-79
2023/03/31 06:23:12;;;;;;;24.48;2.92;;;;;;;10.36;100.00;99530.63;5202915;28;20548;-80
2023/03/31 06:25:43;;;;;;;23.80;3.55;;;;;;;10.38;100.00;99539.28;5197649;28;20026;-80
2023/03/31 06:28:13;;;;;;;18.10;3.03;;;;;;;10.41;100.00;99535.38;5201026;28;20531;-80
2023/03/31 06:30:44;;;;;;;14.38;2.47;;;;;;;10.47;100.00;99529.22;5202446;28;20022;-79
2023/03/31 06:33:15;;;;;;;25.10;4.00;;;;;;;10.51;100.00;99536.69;5202195;28;20029;-79
2023/03/31 06:35:45;;;;;;;19.17;3.13;;;;;;;10.53;100.00;99534.63;5202241;28;20549;-80
2023/03/31 06:38:16;;;;;;;19.38;3.75;;;;;;;10.59;100.00;99530.31;5199860;28;20026;-79
2023/03/31 06:40:46;;;;;;;22.38;3.38;;;;;;;10.63;100.00;99523.53;5202013;28;20025;-80
2023/03/31 06:43:17;;;;;;;25.88;3.22;;;;;;;10.70;100.00;99518.22;5202499;28;20029;-80
2023/03/31 06:45:48;;;;;;;12.02;3.13;;;;;;;10.77;100.00;99519.91;5201874;28;20029;-79
2023/03/31 06:48:18;;;;;;;15.35;3.40;;;;;;;10.80;100.00;99518.69;5201302;28;20470;-78
2023/03/31 06:50:49;;;;;;;20.17;2.88;;;;;;;10.87;100.00;99514.97;5199702;28;20025;-77
2023/03/31 06:53:21;;;;;;;21.88;3.38;;;;;;;10.95;100.00;99522.03;5203725;28;20025;-78
2023/03/31 06:55:51;;;;;;;22.35;2.97;;;;;;;10.99;100.00;99517.91;5196381;28;20029;-79
2023/03/31 06:58:22;;;;;;;24.52;3.85;;;;;;;11.06;100.00;99512.59;5202151;28;20025;-79
2023/03/31 07:00:53;;;;;;;15.88;3.03;;;;;;;11.18;100.00;99505.59;5203950;28;20021;-77
2023/03/31 07:03:23;;;;;;;14.93;3.22;;;;;;;11.23;100.00;99507.66;5203293;28;20087;-80
2023/03/31 07:05:55;;;;;;;20.02;3.10;;;;;;;11.27;100.00;99512.44;5203791;28;20115;-78
2023/03/31 07:08:26;;;;;;;20.88;3.75;;;;;;;11.33;100.00;99511.59;5202758;28;20401;-79
2023/03/31 07:10:58;;;;;;;21.63;3.30;;;;;;;11.36;100.00;99507.69;5203951;28;20059;-79
2023/03/31 07:13:28;;;;;;;28.70;3.97;;;;;;;11.46;100.00;99496.56;5203876;28;20029;-79
2023/03/31 07:15:59;;;;;;;19.70;4.13;;;;;;;11.53;100.00;99506.25;5203362;28;20033;-78
2023/03/31 07:18:31;;;;;;;21.80;3.20;;;;;;;11.65;100.00;99501.13;5203171;28;20087;-78
2023/03/31 07:21:02;;;;;;;27.70;4.63;;;;;;;11.77;100.00;99499.47;5203506;28;20037;-77
2023/03/31 07:23:33;;;;;;;20.55;3.80;;;;;;;11.92;100.00;99501.97;5203910;28;20418;-79
2023/03/31 07:26:05;;;;;;;18.80;3.47;;;;;;;12.04;100.00;99494.09;5202555;28;20549;-79
2023/03/31 07:28:35;;;;;;;24.27;4.30;;;;;;;12.11;100.00;99493.06;5201889;28;20121;-79
2023/03/31 07:31:25;;;;;;;20.30;3.58;;;;;;;12.10;100.00;99482.53;5203643;28;20108;-79
2023/03/31 07:33:55;;;;;;;21.23;3.35;;;;;;;12.06;100.00;99492.88;5202885;28;20026;-79
2023/03/31 07:36:26;;;;;;;22.92;3.17;;;;;;;12.00;100.00;99488.34;5196324;28;20033;-78
2023/03/31 07:38:56;;;;;;;22.73;4.13;;;;;;;12.04;100.00;99476.09;5203686;28;20032;-78
2023/03/31 07:41:27;;;;;;;23.77;3.50;;;;;;;12.04;100.00;99483.34;5202900;28;20096;-79
2023/03/31 07:43:57;;;;;;;21.05;4.65;;;;;;;11.93;100.00;99479.44;5203948;28;20144;-79
2023/03/31 07:46:28;;;;;;;25.73;3.30;;;;;;;11.96;100.00;99491.66;5218854;28;20108;-77
2023/03/31 07:49:01;;;;;;;20.25;3.40;;;;;;;11.97;100.00;99490.59;5203712;28;20084;-77
2023/03/31 07:51:31;;;;;;;22.13;3.40;;;;;;;11.99;100.00;99496.59;5193492;28;20037;-80
2023/03/31 07:54:02;;;;;;;18.25;3.97;;;;;;;11.88;100.00;99500.72;5199293;28;20026;-77
2023/03/31 07:56:33;;;;;;;20.48;3.47;;;;;;;11.89;100.00;99497.00;5202050;28;20037;-79
2023/03/31 07:59:03;;;;;;;18.33;3.33;;;;;;;11.87;100.00;99505.28;5203574;28;20029;-79
2023/03/31 08:01:35;;;;;;;17.65;4.28;;;;;;;11.78;100.00;99494.91;5202611;28;20017;-77
2023/03/31 08:04:05;;;;;;;22.83;4.78;;;;;;;11.65;100.00;99501.13;5217872;28;20470;-76
2023/03/31 08:06:37;;;;;;;19.52;3.47;;;;;;;11.58;100.00;99492.22;5200532;28;20049;-79
2023/03/31 08:09:08;;;;;;;18.52;3.42;;;;;;;11.58;100.00;99494.91;5202070;28;20030;-79
2023/03/31 08:11:38;;;;;;;28.75;4.00;;;;;;;11.44;100.00;99493.25;5206824;28;20116;-79
2023/03/31 08:14:09;;;;;;;19.00;3.45;;;;;;;11.49;100.00;99509.56;5222554;28;20072;-78
2023/03/31 08:16:40;;;;;;;22.15;3.08;;;;;;;11.47;100.00;99495.53;5207336;28;20128;-79
2023/03/31 08:19:10;;;;;;;22.10;3.88;;;;;;;11.50;100.00;99487.06;5205433;28;20123;-78
2023/03/31 08:21:41;;;;;;;19.23;3.78;;;;;;;11.54;100.00;99493.66;5208338;28;20035;-79
2023/03/31 08:24:11;;;;;;;22.58;3.45;;;;;;;11.60;100.00;99493.69;5207499;28;20052;-78
2023/03/31 08:26:42;;;;;;;21.75;4.05;;;;;;;11.53;100.00;99482.09;5197125;28;20093;-78
2023/03/31 08:29:13;;;;;;;23.13;3.83;;;;;;;11.61;100.00;99484.59;5204972;28;20025;-79
2023/03/31 08:31:43;;;;;;;25.00;3.83;;;;;;;11.63;100.00;99482.50;5205611;28;20025;-79
2023/03/31 08:34:14;;;;;;;29.00;3.85;;;;;;;11.67;100.00;99477.56;5204766;28;20079;-78
2023/03/31 08:36:44;;;;;;;27.73;4.30;;;;;;;11.82;100.00;99493.50;5204130;28;20021;-79
2023/03/31 08:39:15;;;;;;;20.15;3.42;;;;;;;11.82;100.00;99480.06;5204311;28;20025;-79
2023/03/31 08:41:57;;;;;;;21.30;3.13;;;;;;;11.88;100.00;99463.94;5205092;28;20033;-78
2023/03/31 08:44:47;;;;;;;16.38;3.85;;;;;;;11.90;100.00;99467.25;5205122;28;20084;-78
2023/03/31 08:47:23;;;;;;;17.20;3.25;;;;;;;12.03;100.00;99466.41;5204179;28;20029;-79
2023/03/31 08:49:55;;;;;;;;;;;;;;;12.15;100.00;99464.75;5205558;28;20051;-77
2023/03/31 08:52:33;;;;;;;18.67;3.83;;;;;;;11.90;100.00;99469.94;5192066;28;19967;-77
2023/03/31 08:55:12;;;;;;;21.40;3.45;;;;;;;12.03;100.00;99463.72;5192697;28;20029;-78
2023/03/31 08:57:53;;;;;;;19.58;3.42;;;;;;;12.09;100.00;99454.81;5193106;28;20034;-79
2023/03/31 09:00:24;;;;;;;19.65;3.45;;;;;;;12.13;100.00;99452.53;5204750;28;20099;-78
2023/03/31 09:03:15;;;;;;;12.45;2.83;;;;;;;12.16;100.00;99450.25;5205373;28;20048;-79
2023/03/31 09:05:56;;;;;;;24.50;3.30;;;;;;;12.26;100.00;99436.38;5205166;28;20914;-79
2023/03/31 09:08:45;;;;;;;16.00;2.80;;;;;;;12.23;100.00;99444.03;5205873;28;20414;-77
2023/03/31 09:11:22;;;;;;;22.85;3.30;;;;;;;12.37;100.00;99445.66;5207439;28;20029;-78
2023/03/31 09:14:13;;;;;;;18.40;2.75;;;;;;;12.33;100.00;99441.72;5208140;28;20474;-79
2023/03/31 09:16:51;;;;;;;15.00;3.15;;;;;;;12.38;100.00;99431.97;5206757;28;20183;-79
2023/03/31 09:19:58;;;;;;;18.05;2.67;;;;;;;12.32;100.00;99448.16;5201604;28;20029;-78
2023/03/31 09:22:34;;;;;;;14.63;2.70;;;;;;;12.24;100.00;99432.22;5222003;28;20034;-78
2023/03/31 09:25:26;;;;;;;25.05;4.07;;;;;;;12.26;100.00;99422.13;5193498;28;20049;-77
2023/03/31 09:27:58;;;;;;;17.02;2.67;;;;;;;12.34;100.00;99422.69;5201674;28;20067;-78
2023/03/31 09:30:32;;;;;;;15.35;2.90;;;;;;;12.36;100.00;99419.81;5205199;28;20024;-78
2023/03/31 09:33:40;;;;;;;14.00;2.90;;;;;;;12.32;100.00;99423.94;5205868;28;20033;-77
2023/03/31 09:36:29;;;;;;;21.55;3.25;;;;;;;12.40;100.00;99418.34;5206431;28;20025;-77
2023/03/31 09:39:00;;;;;;;20.73;3.33;;;;;;;12.46;100.00;99419.34;5206496;28;20029;-78
2023/03/31 09:41:31;;;;;;;20.75;3.55;;;;;;;12.58;100.00;99418.44;5206430;28;20025;-79
2023/03/31 09:44:01;;;;;;;18.25;3.65;;;;;;;12.53;100.00;99418.28;5207153;28;20039;-78
2023/03/31 09:46:34;;;;;;;20.88;3.35;;;;;;;12.69;100.00;99409.69;5206011;28;20091;-79
2023/03/31 09:49:13;;;;;;;23.70;5.35;;;;;;;12.71;100.00;99401.44;5206913;28;20079;-79
2023/03/31 09:51:48;;;;;;;23.95;3.67;;;;;;;12.68;100.00;99402.69;5202207;28;20395;-79
2023/03/31 09:54:40;;;;;;;26.73;3.72;;;;;;;12.67;100.00;99406.41;5206401;28;20441;-78
2023/03/31 09:57:13;;;;;;;19.80;3.95;;;;;;;12.65;100.00;99384.28;5206233;28;20033;-78
2023/03/31 09:59:50;;;;;;;22.60;3.70;;;;;;;12.62;100.00;99379.31;5206722;28;20026;-79
2023/03/31 10:02:39;;;;;;;28.35;4.15;;;;;;;12.48;100.00;99385.81;5206323;28;20017;-79
2023/03/31 10:05:26;;;;;;;19.17;3.90;;;;;;;12.50;100.00;99389.13;5206561;28;20037;-77
2023/03/31 10:08:15;;;;;;;21.25;3.72;;;;;;;12.49;100.00;99387.44;5206297;28;20110;-79
2023/03/31 10:10:50;;;;;;;25.73;4.10;;;;;;;12.65;100.00;99372.69;5206122;28;20390;-79
2023/03/31 10:13:24;;;;;;;25.40;4.40;;;;;;;12.59;100.00;99387.00;5206511;28;20037;-79
2023/03/31 10:18:51;;;;;;;25.05;3.47;;;;;;;12.55;100.00;99389.31;5199493;28;20087;-79
2023/03/31 10:21:37;;;;;;;23.77;4.00;;;;;;;12.64;100.00;99388.00;5203915;28;20013;-78
2023/03/31 10:24:09;;;;;;;18.70;3.50;;;;;;;12.77;100.00;99384.41;5218413;28;20048;-74
2023/03/31 10:26:40;;;;;;;25.80;3.45;;;;;;;12.41;100.00;99366.19;5199471;28;20018;-75
2023/03/31 10:29:15;;;;;;;19.90;3.78;;;;;;;12.37;100.00;99381.09;5202522;28;20025;-75
2023/03/31 10:31:46;;;;;;;20.90;3.97;;;;;;;12.32;100.00;99372.84;5196595;28;20017;-74
2023/03/31 10:34:18;;;;;;;25.63;4.13;;;;;;;12.10;100.00;99375.84;5216993;28;20478;-74
2023/03/31 10:36:50;;;;;;;27.42;5.00;;;;;;;12.17;100.00;99373.94;5199523;28;20025;-74
2023/03/31 10:39:28;;;;;;;26.23;4.22;;;;;;;12.26;100.00;99362.97;5201848;28;20021;-73
2023/03/31 10:41:59;;;;;;;24.02;4.38;;;;;;;12.26;100.00;99350.34;5201516;28;20556;-74
2023/03/31 10:44:32;;;;;;;28.73;3.88;;;;;;;12.34;100.00;99365.38;5201491;28;20036;-75
2023/03/31 10:47:22;;;;;;;19.25;3.50;;;;;;;12.27;100.00;99351.16;5201297;28;20448;-74
2023/03/31 10:49:56;;;;;;;19.13;3.80;;;;;;;12.29;100.00;99343.69;5201566;28;20116;-74
2023/03/31 10:52:26;;;;;;;30.15;3.90;;;;;;;12.43;100.00;99361.41;5195303;28;20049;-75
2023/03/31 10:54:59;;;;;;;23.58;3.70;;;;;;;12.59;100.00;99330.50;5201286;28;20076;-75
2023/03/31 10:57:37;;;;;;;19.58;4.15;;;;;;;12.42;100.00;99347.16;5200530;28;20025;-74
2023/03/31 11:00:26;;;;;;;20.52;3.38;;;;;;;12.48;100.00;99344.63;5201947;28;20061;-74
2023/03/31 11:03:35;;;;;;;18.85;3.45;;;;;;;12.55;100.00;99350.78;5201542;28;20036;-74
2023/03/31 11:06:19;;;;;;;22.58;4.00;;;;;;;12.50;100.00;99358.69;5201390;28;20029;-74
2023/03/31 11:09:18;;;;;;;21.58;3.72;;;;;;;12.49;100.00;99333.66;5201204;28;20398;-75
2023/03/31 11:12:00;;;;;;;21.85;3.10;;;;;;;12.50;100.00;99346.09;5201106;28;20116;-75
2023/03/31 11:15:03;;;;;;;22.00;3.20;;;;;;;12.55;100.00;99361.56;5201496;28;20486;-74
2023/03/31 11:17:44;;;;;;;19.30;3.75;;;;;;;12.70;100.00;99336.03;5195623;28;20034;-75
2023/03/31 11:20:49;;;;;;;16.65;2.85;;;;;;;12.63;100.00;99337.09;5200760;28;20049;-74
2023/03/31 11:23:56;;;;;;;18.88;3.05;;;;;;;12.43;100.00;99343.41;5201543;28;20112;-74
2023/03/31 11:26:43;;;;;;;20.58;3.40;;;;;;;12.55;100.00;99345.41;5199473;28;20428;-74
2023/03/31 11:29:34;;;;;;;15.60;3.10;;;;;;;12.47;100.00;99357.25;5201373;28;20034;-74
2023/03/31 11:32:28;;;;;;;28.80;3.75;;;;;;;12.51;100.00;99328.09;5200658;28;20029;-74
2023/03/31 11:35:34;;;;;;;21.67;3.60;;;;;;;12.29;100.00;99338.31;5201195;28;20053;-74
2023/03/31 11:38:23;;;;;;;29.48;5.13;;;;;;;12.51;100.00;99336.16;5199825;28;20125;-74
2023/03/31 11:41:05;;;;;;;18.55;3.25;;;;;;;12.65;100.00;99314.34;5216295;28;20036;-74
2023/03/31 11:43:44;;;;;;;18.73;3.15;;;;;;;12.59;100.00;99315.19;5201433;28;20029;-74
2023/03/31 11:46:33;;;;;;;15.70;3.33;;;;;;;12.91;100.00;99318.72;5218823;28;20044;-74
2023/03/31 11:49:14;;;;;;;18.25;3.42;;;;;;;12.82;100.00;99311.94;5205032;28;20042;-74
2023/03/31 11:51:53;;;;;;;20.30;3.33;;;;;;;13.06;100.00;99307.63;5204469;28;20076;-74
2023/03/31 11:54:32;;;;;;;17.27;2.85;;;;;;;13.13;100.00;99299.47;5205340;28;20033;-74
2023/03/31 11:57:12;;;;;;;17.60;3.60;;;;;;;13.33;100.00;99289.38;5204085;28;20029;-74
2023/03/31 11:59:46;;;;;;;12.10;2.63;;;;;;;13.34;100.00;99292.88;5204960;28;20064;-74
2023/03/31 12:02:18;;;;;;;14.02;3.25;;;;;;;13.25;100.00;99276.19;5220425;28;20053;-74
2023/03/31 12:04:54;;;;;;;12.45;2.72;;;;;;;13.57;100.00;99284.19;5205088;28;20076;-74